Abis Bremen — PCJO — position and weather

sailwx.info

Track history (hours):
 
Tides and Currents Weather Stations Pressure Air Temp Water Temp Dewpoint Dewpoint Depression Visibility Wind Speed Wind Dir Waves Ship Positions

Abis Bremen

Last reported at 2020-Jul-02 14:29 UTC. Time now 2020-Jul-02 14:51 UTC.
Position N 35°58' W 006°13'.

Length 90 m; draft 5.2 m.

Type: Ship. MMSI: 246778880.

Date/timePositionNaut miles runAvg speedWind from/ knotsBaromVisibWave heightAir tempDewpointWater temp
2020-Jul-02 14:29N 35°58' W 006°13'63 7.9
2020-Jul-02 06:30N 36°05' W 004°55'21 8.5
2020-Jul-02 04:01N 36°09' W 004°29'4 7.4
2020-Jul-02 03:30N 36°10' W 004°25'8 7.4
2020-Jul-02 02:29N 36°11' W 004°16'8 7.8
2020-Jul-02 01:30N 36°11' W 004°06'15 7.7
2020-Jul-01 23:31N 36°13' W 003°47'48 9.5
2020-Jul-01 18:31N 36°22' W 002°49'24 9.6
2020-Jul-01 16:01N 36°25' W 002°20'98 9.3
2020-Jul-01 05:26N 37°28' W 000°44'14 9.7
2020-Jul-01 03:59N 37°37' W 000°32'115 8.6
2020-Jun-30 14:30N 39°31' W 000°09'  
2020-Jun-27 22:49N 38°09' E 000°00'410.9
2020-Jun-27 22:28N 38°06' W 000°03'3311.2
2020-Jun-27 19:30N 37°38' W 000°26'611.3
2020-Jun-27 19:00N 37°33' W 000°30'2710.8
2020-Jun-27 16:28N 37°15' W 000°56'7610.9
2020-Jun-27 09:28N 36°25' W 002°07'1610.7
2020-Jun-27 08:00N 36°20' W 002°25'611.1
2020-Jun-27 07:26N 36°19' W 002°33'1710.9
2020-Jun-27 05:56N 36°17' W 002°54'5611.4
2020-Jun-27 00:59N 36°08' W 004°03'2412.2
2020-Jun-26 23:01N 36°05' W 004°32'2512.7
2020-Jun-26 21:01N 36°02' W 005°03'612.6
2020-Jun-26 20:31N 36°01' W 005°11'134 3.3
2020-Jun-25 03:51N 36°33' W 007°52'1212.2
2020-Jun-25 02:54N 36°32' W 008°07'1712.0
2020-Jun-25 01:30N 36°32' W 008°28'1811.7
2020-Jun-25 00:00N 36°32' W 008°50'3511.4
2020-Jun-24 20:58N 36°45' W 009°29'3012.3
2020-Jun-24 18:30N 37°14' W 009°41'3712.3
2020-Jun-24 15:30N 37°50' W 009°52'1912.4
2020-Jun-24 14:00N 38°08' W 009°57'2512.7
2020-Jun-24 12:00N 38°33' W 010°04'612.7
2020-Jun-24 11:30N 38°39' W 010°05'1912.7
2020-Jun-24 10:00N 38°58' W 010°07'3511.6
2020-Jun-24 07:00N 39°33' W 010°06'1110.7
2020-Jun-24 06:00N 39°44' W 010°07'2210.8
2020-Jun-24 03:57N 40°06' W 010°07'1010.7
2020-Jun-24 03:00N 40°16' W 010°07'610.7
2020-Jun-24 02:27N 40°22' W 010°07'1610.9
2020-Jun-24 00:57N 40°38' W 010°07'3311.1
2020-Jun-23 22:00N 41°11' W 010°06'811.3
2020-Jun-23 21:20N 41°18' W 010°05'16910.7
2020-Jun-23 05:29N 44°05' W 009°31'510.7
2020-Jun-23 05:00N 44°10' W 009°28'1110.6
2020-Jun-23 04:00N 44°19' W 009°21'1110.5
2020-Jun-23 03:00N 44°28' W 009°13'1610.5
2020-Jun-23 01:26N 44°43' W 009°02'2010.6
2020-Jun-22 23:30N 45°01' W 008°48'  
Track history (hours):
 
Tides and Currents Weather Stations Pressure Air Temp Water Temp Dewpoint Dewpoint Depression Visibility Wind Speed Wind Dir Waves Ship Positions

Abis Bremen

Last reported at 2020-Jul-02 14:29 UTC. Time now 2020-Jul-02 14:51 UTC.
Position N 35°58' W 006°13'.

Length 90 m; draft 5.2 m.

Type: Ship. MMSI: 246778880.

Date/timePositionNaut miles runAvg speedWind from/ knotsBaromVisibWave heightAir tempDewpointWater temp
2020-Jul-02 14:29N 35°58' W 006°13'63 7.9
2020-Jul-02 06:30N 36°05' W 004°55'21 8.5
2020-Jul-02 04:01N 36°09' W 004°29'4 7.4
2020-Jul-02 03:30N 36°10' W 004°25'8 7.4
2020-Jul-02 02:29N 36°11' W 004°16'8 7.8
2020-Jul-02 01:30N 36°11' W 004°06'15 7.7
2020-Jul-01 23:31N 36°13' W 003°47'48 9.5
2020-Jul-01 18:31N 36°22' W 002°49'24 9.6
2020-Jul-01 16:01N 36°25' W 002°20'98 9.3
2020-Jul-01 05:26N 37°28' W 000°44'14 9.7
2020-Jul-01 03:59N 37°37' W 000°32'115 8.6
2020-Jun-30 14:30N 39°31' W 000°09'  
2020-Jun-27 22:49N 38°09' E 000°00'410.9
2020-Jun-27 22:28N 38°06' W 000°03'3311.2
2020-Jun-27 19:30N 37°38' W 000°26'611.3
2020-Jun-27 19:00N 37°33' W 000°30'2710.8
2020-Jun-27 16:28N 37°15' W 000°56'7610.9
2020-Jun-27 09:28N 36°25' W 002°07'1610.7
2020-Jun-27 08:00N 36°20' W 002°25'611.1
2020-Jun-27 07:26N 36°19' W 002°33'1710.9
2020-Jun-27 05:56N 36°17' W 002°54'5611.4
2020-Jun-27 00:59N 36°08' W 004°03'2412.2
2020-Jun-26 23:01N 36°05' W 004°32'2512.7
2020-Jun-26 21:01N 36°02' W 005°03'612.6
2020-Jun-26 20:31N 36°01' W 005°11'134 3.3
2020-Jun-25 03:51N 36°33' W 007°52'1212.2
2020-Jun-25 02:54N 36°32' W 008°07'1712.0
2020-Jun-25 01:30N 36°32' W 008°28'1811.7
2020-Jun-25 00:00N 36°32' W 008°50'3511.4
2020-Jun-24 20:58N 36°45' W 009°29'3012.3
2020-Jun-24 18:30N 37°14' W 009°41'3712.3
2020-Jun-24 15:30N 37°50' W 009°52'1912.4
2020-Jun-24 14:00N 38°08' W 009°57'2512.7
2020-Jun-24 12:00N 38°33' W 010°04'612.7
2020-Jun-24 11:30N 38°39' W 010°05'1912.7
2020-Jun-24 10:00N 38°58' W 010°07'3511.6
2020-Jun-24 07:00N 39°33' W 010°06'1110.7
2020-Jun-24 06:00N 39°44' W 010°07'2210.8
2020-Jun-24 03:57N 40°06' W 010°07'1010.7
2020-Jun-24 03:00N 40°16' W 010°07'610.7
2020-Jun-24 02:27N 40°22' W 010°07'1610.9
2020-Jun-24 00:57N 40°38' W 010°07'3311.1
2020-Jun-23 22:00N 41°11' W 010°06'811.3
2020-Jun-23 21:20N 41°18' W 010°05'16910.7
2020-Jun-23 05:29N 44°05' W 009°31'510.7
2020-Jun-23 05:00N 44°10' W 009°28'1110.6
2020-Jun-23 04:00N 44°19' W 009°21'1110.5
2020-Jun-23 03:00N 44°28' W 009°13'1610.5
2020-Jun-23 01:26N 44°43' W 009°02'2010.6
2020-Jun-22 23:30N 45°01' W 008°48'  

Dump ship's entire track history